createdAt,value
2018-09-12T00:00:40.310Z,4.00
2018-09-12T00:01:40.290Z,4.00
2018-09-12T00:02:40.272Z,4.00
2018-09-12T00:03:40.253Z,4.00
2018-09-12T00:04:40.235Z,4.00
2018-09-12T00:05:40.216Z,4.00
2018-09-12T00:06:40.199Z,4.00
2018-09-12T00:07:40.188Z,4.00
2018-09-12T00:08:40.161Z,4.00
2018-09-12T00:09:40.143Z,4.00
2018-09-12T00:10:40.128Z,4.00
2018-09-12T00:11:40.105Z,4.00
2018-09-12T00:12:40.087Z,4.00
2018-09-12T00:13:40.070Z,4.00
2018-09-12T00:14:40.052Z,4.00
2018-09-12T00:15:40.032Z,4.00
2018-09-12T00:16:40.014Z,4.00
2018-09-12T00:17:39.996Z,4.00
2018-09-12T00:18:39.976Z,4.00
2018-09-12T00:19:39.958Z,4.00
2018-09-12T00:20:39.939Z,4.00
2018-09-12T00:21:39.921Z,4.00
2018-09-12T00:22:39.903Z,4.00
2018-09-12T00:23:39.884Z,4.00
2018-09-12T00:24:39.866Z,4.00
2018-09-12T00:25:39.848Z,4.00
2018-09-12T00:26:39.829Z,4.00
2018-09-12T00:27:39.816Z,4.00
2018-09-12T00:28:39.792Z,4.00
2018-09-12T00:29:39.782Z,4.00
2018-09-12T00:30:39.758Z,4.00
2018-09-12T00:31:39.736Z,4.00
2018-09-12T00:32:39.719Z,4.00
2018-09-12T00:33:39.699Z,4.00
2018-09-12T00:34:39.682Z,4.00
2018-09-12T00:35:39.661Z,4.00
2018-09-12T00:36:39.644Z,4.00
2018-09-12T00:37:39.625Z,4.00
2018-09-12T00:38:39.610Z,4.00
2018-09-12T00:39:39.588Z,4.00
2018-09-12T00:40:39.570Z,4.00
2018-09-12T00:41:39.551Z,4.00
2018-09-12T00:42:39.532Z,4.00
2018-09-12T00:43:39.514Z,4.00
2018-09-12T00:44:39.495Z,4.00
2018-09-12T00:45:39.476Z,4.00
2018-09-12T00:46:39.457Z,4.00
2018-09-12T00:47:39.438Z,4.00
2018-09-12T00:48:39.429Z,4.00
2018-09-12T00:49:39.402Z,4.00
2018-09-12T00:50:39.383Z,4.00
2018-09-12T00:51:39.365Z,4.00
2018-09-12T00:52:39.345Z,4.00
2018-09-12T00:53:39.329Z,4.00
2018-09-12T00:54:39.308Z,4.00
2018-09-12T00:55:39.289Z,4.00
2018-09-12T00:56:39.270Z,4.00
2018-09-12T00:57:39.254Z,4.00
2018-09-12T00:58:39.242Z,4.00
2018-09-12T00:59:39.216Z,4.00
2018-09-12T01:00:39.196Z,4.00
2018-09-12T01:01:39.178Z,4.00
2018-09-12T01:02:39.159Z,4.00
2018-09-12T01:03:39.140Z,4.00
2018-09-12T01:04:39.120Z,4.00
2018-09-12T01:05:39.101Z,4.00
2018-09-12T01:06:39.082Z,4.00
2018-09-12T01:07:39.064Z,4.00
2018-09-12T01:08:39.046Z,4.00
2018-09-12T01:09:39.026Z,4.00
2018-09-12T01:10:39.007Z,4.00
2018-09-12T01:11:38.989Z,4.00
2018-09-12T01:12:38.968Z,4.00
2018-09-12T01:13:38.955Z,4.00
2018-09-12T01:14:38.931Z,4.00
2018-09-12T01:15:38.911Z,4.00
2018-09-12T01:16:38.893Z,4.00
2018-09-12T01:17:38.874Z,4.00
2018-09-12T01:18:38.855Z,4.00
2018-09-12T01:19:38.837Z,4.00
2018-09-12T01:20:38.818Z,4.00
2018-09-12T01:21:38.799Z,4.00
2018-09-12T01:22:38.780Z,4.00
2018-09-12T01:23:38.762Z,4.00
2018-09-12T01:24:38.741Z,4.00
2018-09-12T01:25:39.473Z,4.00
2018-09-12T01:26:38.705Z,4.00
2018-09-12T01:27:38.685Z,4.00
2018-09-12T01:28:38.667Z,4.00
2018-09-12T01:29:38.646Z,4.00
2018-09-12T01:30:38.627Z,4.00
2018-09-12T01:31:38.609Z,4.00
2018-09-12T01:32:38.590Z,4.00
2018-09-12T01:33:38.570Z,4.00
2018-09-12T01:34:38.551Z,4.00
2018-09-12T01:35:38.532Z,4.00
2018-09-12T01:36:38.513Z,4.00
2018-09-12T01:37:38.493Z,4.00
2018-09-12T01:38:38.475Z,4.00
2018-09-12T01:39:38.455Z,4.00
2018-09-12T01:40:38.436Z,4.00
2018-09-12T01:41:38.419Z,4.00
2018-09-12T01:42:38.400Z,4.00
2018-09-12T01:43:38.384Z,4.00
2018-09-12T01:44:38.360Z,4.00
2018-09-12T01:45:38.342Z,4.00
2018-09-12T01:46:38.322Z,0.00
2018-09-12T01:47:38.303Z,4.00
2018-09-12T01:48:38.283Z,4.00
2018-09-12T01:49:38.265Z,4.00
2018-09-12T01:50:38.246Z,4.00
2018-09-12T01:51:38.226Z,4.00
2018-09-12T01:52:38.213Z,4.00
2018-09-12T01:53:38.188Z,0.00
2018-09-12T01:54:38.170Z,4.00
2018-09-12T01:55:38.149Z,4.00
2018-09-12T01:56:38.130Z,4.00
2018-09-12T01:57:38.111Z,4.00
2018-09-12T01:58:38.092Z,4.00
2018-09-12T01:59:38.073Z,4.00
2018-09-12T02:00:38.053Z,4.00
2018-09-12T02:01:38.034Z,4.00
2018-09-12T02:02:38.019Z,4.00
2018-09-12T02:03:37.997Z,4.00
2018-09-12T02:04:37.979Z,4.00
2018-09-12T02:05:37.958Z,4.00
2018-09-12T02:06:37.938Z,4.00
2018-09-12T02:07:37.920Z,4.00
2018-09-12T02:08:37.900Z,4.00
2018-09-12T02:09:37.882Z,4.00
2018-09-12T02:10:37.861Z,4.00
2018-09-12T02:11:37.841Z,4.00
2018-09-12T02:12:37.823Z,4.00
2018-09-12T02:13:37.805Z,4.00
2018-09-12T02:14:37.785Z,4.00
2018-09-12T02:15:37.764Z,4.00
2018-09-12T02:16:37.747Z,4.00
2018-09-12T02:17:37.728Z,4.00
2018-09-12T02:18:37.708Z,4.00
2018-09-12T02:19:37.687Z,4.00
2018-09-12T02:20:37.669Z,4.00
2018-09-12T02:21:37.649Z,4.00
2018-09-12T02:22:37.629Z,4.00
2018-09-12T02:23:37.609Z,4.00
2018-09-12T02:24:37.592Z,4.00
2018-09-12T02:25:37.571Z,4.00
2018-09-12T02:26:37.552Z,4.00
2018-09-12T02:27:37.533Z,4.00
2018-09-12T02:28:37.513Z,4.00
2018-09-12T02:29:37.494Z,4.00
2018-09-12T02:30:37.475Z,4.00
2018-09-12T02:31:37.454Z,4.00
2018-09-12T02:32:37.436Z,4.00
2018-09-12T02:33:37.417Z,4.00
2018-09-12T02:34:37.398Z,4.00
2018-09-12T02:35:37.381Z,4.00
2018-09-12T02:36:37.363Z,4.00
2018-09-12T02:37:37.339Z,4.00
2018-09-12T02:38:37.323Z,4.00
2018-09-12T02:39:38.051Z,4.00
2018-09-12T02:40:37.279Z,4.00
2018-09-12T02:41:37.260Z,4.00
2018-09-12T02:42:37.242Z,4.00
2018-09-12T02:43:37.222Z,4.00
2018-09-12T02:44:37.207Z,4.00
2018-09-12T02:45:37.183Z,4.00
2018-09-12T02:46:37.163Z,4.00
2018-09-12T02:47:37.144Z,4.00
2018-09-12T02:48:37.127Z,4.00
2018-09-12T02:49:37.106Z,4.00
2018-09-12T02:50:37.090Z,4.00
2018-09-12T02:51:37.066Z,4.00
2018-09-12T02:52:37.052Z,4.00
2018-09-12T02:53:37.028Z,4.00
2018-09-12T02:54:37.007Z,4.00
2018-09-12T02:55:36.988Z,4.00
2018-09-12T02:56:36.967Z,4.00
2018-09-12T02:57:36.948Z,4.00
2018-09-12T02:58:36.929Z,4.00
2018-09-12T02:59:36.908Z,4.00
2018-09-12T03:00:36.891Z,4.00
2018-09-12T03:01:36.869Z,4.00
2018-09-12T03:02:36.850Z,4.00
2018-09-12T03:03:36.831Z,4.00
2018-09-12T03:04:36.810Z,4.00
2018-09-12T03:05:36.791Z,4.00
2018-09-12T03:06:37.523Z,4.00
2018-09-12T03:07:36.750Z,4.00
2018-09-12T03:08:36.732Z,4.00
2018-09-12T03:09:36.713Z,4.00
2018-09-12T03:10:36.693Z,4.00
2018-09-12T03:11:36.672Z,4.00
2018-09-12T03:12:36.655Z,4.00
2018-09-12T03:13:36.633Z,4.00
2018-09-12T03:14:36.614Z,4.00
2018-09-12T03:15:36.595Z,4.00
2018-09-12T03:16:36.573Z,4.00
2018-09-12T03:17:36.556Z,4.00
2018-09-12T03:18:36.534Z,4.00
2018-09-12T03:19:36.514Z,4.00
2018-09-12T03:20:36.568Z,4.00
2018-09-12T03:21:36.475Z,4.00
2018-09-12T03:22:36.456Z,4.00
2018-09-12T03:23:36.435Z,4.00
2018-09-12T03:24:36.415Z,4.00
2018-09-12T03:25:36.397Z,4.00
2018-09-12T03:26:36.376Z,4.00
2018-09-12T03:27:37.113Z,4.00
2018-09-12T03:28:36.339Z,4.00
2018-09-12T03:29:36.318Z,4.00
2018-09-12T03:30:36.297Z,0.00
2018-09-12T03:31:36.277Z,4.00
2018-09-12T03:32:36.263Z,4.00
2018-09-12T03:33:36.235Z,4.00
2018-09-12T03:34:36.218Z,4.00
2018-09-12T03:35:36.195Z,4.00
2018-09-12T03:36:36.176Z,4.00
2018-09-12T03:37:36.156Z,4.00
2018-09-12T03:38:36.136Z,4.00
2018-09-12T03:39:36.116Z,4.00
2018-09-12T03:40:36.096Z,4.00
2018-09-12T03:41:36.076Z,4.00
2018-09-12T03:42:36.056Z,4.00
2018-09-12T03:43:36.036Z,4.00
2018-09-12T03:44:36.016Z,4.00
2018-09-12T03:45:35.996Z,4.00
2018-09-12T03:46:35.977Z,4.00
2018-09-12T03:47:35.956Z,4.00
2018-09-12T03:48:35.935Z,4.00
2018-09-12T03:49:35.917Z,4.00
2018-09-12T03:50:35.896Z,4.00
2018-09-12T03:51:35.875Z,4.00
2018-09-12T03:52:35.856Z,4.00
2018-09-12T03:53:38.090Z,4.00
2018-09-12T03:54:35.816Z,4.00
2018-09-12T03:55:35.796Z,4.00
2018-09-12T03:56:35.777Z,4.00
2018-09-12T03:57:35.756Z,4.00
2018-09-12T03:58:35.736Z,4.00
2018-09-12T03:59:35.715Z,4.00
2018-09-12T04:00:35.694Z,4.00
2018-09-12T04:01:35.675Z,4.00
2018-09-12T04:02:35.775Z,4.00
2018-09-12T04:03:35.635Z,4.00
2018-09-12T04:04:35.615Z,4.00
2018-09-12T04:05:35.595Z,4.00
2018-09-12T04:06:35.575Z,4.00
2018-09-12T04:07:35.554Z,4.00
2018-09-12T04:08:35.534Z,4.00
2018-09-12T04:09:35.517Z,4.00
2018-09-12T04:10:35.495Z,4.00
2018-09-12T04:11:35.475Z,4.00
2018-09-12T04:12:35.456Z,0.00
2018-09-12T04:13:35.434Z,4.00
2018-09-12T04:14:35.416Z,0.00
2018-09-12T04:15:35.395Z,4.00
2018-09-12T04:16:35.376Z,4.00
2018-09-12T04:17:35.356Z,0.00
2018-09-12T04:18:35.335Z,0.00
2018-09-12T04:19:35.315Z,0.00
2018-09-12T04:20:36.049Z,0.00
2018-09-12T04:21:35.274Z,0.00
2018-09-12T04:22:35.255Z,0.00
2018-09-12T04:23:35.234Z,0.00
2018-09-12T04:24:35.214Z,0.00
2018-09-12T04:25:35.195Z,0.00
2018-09-12T04:26:35.175Z,0.00
2018-09-12T04:27:35.154Z,4.00
2018-09-12T04:28:35.135Z,4.00
2018-09-12T04:29:35.115Z,4.00
2018-09-12T04:30:35.095Z,4.00
2018-09-12T04:31:35.073Z,4.00
2018-09-12T04:32:35.055Z,4.00
2018-09-12T04:33:35.035Z,4.00
2018-09-12T04:34:35.015Z,4.00
2018-09-12T04:35:34.995Z,8.00
2018-09-12T04:36:34.974Z,4.00
2018-09-12T04:37:34.954Z,8.00
2018-09-12T04:38:34.934Z,8.00
2018-09-12T04:39:34.918Z,8.00
2018-09-12T04:40:34.895Z,12.00
2018-09-12T04:41:34.877Z,12.00
2018-09-12T04:42:34.865Z,16.00
2018-09-12T04:43:34.835Z,16.00
2018-09-12T04:44:34.815Z,20.00
2018-09-12T04:45:34.796Z,28.00
2018-09-12T04:46:34.775Z,32.00
2018-09-12T04:47:34.754Z,36.00
2018-09-12T04:48:34.846Z,40.00
2018-09-12T04:49:34.714Z,48.00
2018-09-12T04:50:34.694Z,52.00
2018-09-12T04:51:34.676Z,60.00
2018-09-12T04:52:34.654Z,68.00
2018-09-12T04:53:34.639Z,84.00
2018-09-12T04:54:34.615Z,96.00
2018-09-12T04:55:34.593Z,108.00
2018-09-12T04:56:34.576Z,120.00
2018-09-12T04:57:34.559Z,136.00
2018-09-12T04:58:34.535Z,152.00
2018-09-12T04:59:34.550Z,172.00
2018-09-12T05:00:34.496Z,188.00
2018-09-12T05:01:34.475Z,208.00
2018-09-12T05:02:34.457Z,232.00
2018-09-12T05:03:34.435Z,252.00
2018-09-12T05:04:34.414Z,276.00
2018-09-12T05:05:34.395Z,300.00
2018-09-12T05:06:34.376Z,328.00
2018-09-12T05:07:34.355Z,352.00
2018-09-12T05:08:34.334Z,376.00
2018-09-12T05:09:34.315Z,404.00
2018-09-12T05:10:34.296Z,432.00
2018-09-12T05:11:34.274Z,456.00
2018-09-12T05:12:34.257Z,480.00
2018-09-12T05:13:34.245Z,504.00
2018-09-12T05:14:34.217Z,532.00
2018-09-12T05:15:34.196Z,552.00
2018-09-12T05:16:34.214Z,580.00
2018-09-12T05:17:34.157Z,612.00
2018-09-12T05:18:34.136Z,640.00
2018-09-12T05:19:34.116Z,664.00
2018-09-12T05:20:34.095Z,692.00
2018-09-12T05:21:34.076Z,716.00
2018-09-12T05:22:34.059Z,740.00
2018-09-12T05:23:34.037Z,764.00
2018-09-12T05:24:34.016Z,792.00
2018-09-12T05:25:33.996Z,812.00
2018-09-12T05:26:33.979Z,844.00
2018-09-12T05:27:33.957Z,868.00
2018-09-12T05:28:34.054Z,892.00
2018-09-12T05:29:33.918Z,912.00
2018-09-12T05:30:33.901Z,936.00
2018-09-12T05:31:33.876Z,956.00
2018-09-12T05:32:33.857Z,980.00
2018-09-12T05:33:33.838Z,1004.00
2018-09-12T05:34:33.817Z,1032.00
2018-09-12T05:35:33.798Z,1052.00
2018-09-12T05:36:33.778Z,1076.00
2018-09-12T05:37:33.759Z,1096.00
2018-09-12T05:38:33.847Z,1116.00
2018-09-12T05:39:33.718Z,1136.00
2018-09-12T05:40:33.700Z,1156.00
2018-09-12T05:41:33.680Z,1176.00
2018-09-12T05:42:33.661Z,1196.00
2018-09-12T05:43:33.655Z,1216.00
2018-09-12T05:44:33.620Z,1236.00
2018-09-12T05:45:33.635Z,1256.00
2018-09-12T05:46:33.601Z,1276.00
2018-09-12T05:47:33.564Z,1296.00
2018-09-12T05:48:33.544Z,1320.00
2018-09-12T05:49:33.522Z,1344.00
2018-09-12T05:50:33.548Z,1368.00
2018-09-12T05:51:33.489Z,1396.00
2018-09-12T05:52:33.462Z,1420.00
2018-09-12T05:53:37.947Z,1448.00
2018-09-12T05:54:33.423Z,1472.00
2018-09-12T05:55:33.406Z,1504.00
2018-09-12T05:56:33.384Z,1532.00
2018-09-12T05:57:33.364Z,1564.00
2018-09-12T05:58:33.348Z,1588.00
2018-09-12T05:59:34.075Z,1620.00
2018-09-12T06:00:33.306Z,1644.00
2018-09-12T06:01:33.286Z,1676.00
2018-09-12T06:02:33.266Z,1704.00
2018-09-12T06:03:33.247Z,1736.00
2018-09-12T06:04:33.227Z,1764.00
2018-09-12T06:05:33.210Z,1796.00
2018-09-12T06:06:33.324Z,1820.00
2018-09-12T06:07:33.168Z,1844.00
2018-09-12T06:08:33.148Z,1868.00
2018-09-12T06:09:33.129Z,1892.00
2018-09-12T06:10:33.110Z,1912.00
2018-09-12T06:11:33.090Z,1936.00
2018-09-12T06:12:33.073Z,1960.00
2018-09-12T06:13:33.052Z,1988.00
2018-09-12T06:14:33.034Z,2008.00
2018-09-12T06:15:33.012Z,2040.00
2018-09-12T06:16:32.993Z,2060.00
2018-09-12T06:17:32.974Z,2080.00
2018-09-12T06:18:32.955Z,2100.00
2018-09-12T06:19:32.935Z,2120.00
2018-09-12T06:20:32.915Z,2136.00
2018-09-12T06:21:32.896Z,2156.00
2018-09-12T06:22:32.878Z,2172.00
2018-09-12T06:23:32.857Z,2184.00
2018-09-12T06:24:32.840Z,2204.00
2018-09-12T06:25:32.821Z,2220.00
2018-09-12T06:26:35.805Z,2232.00
2018-09-12T06:27:32.783Z,2244.00
2018-09-12T06:28:32.766Z,2260.00
2018-09-12T06:29:32.747Z,2276.00
2018-09-12T06:30:32.725Z,2292.00
2018-09-12T06:31:32.709Z,2304.00
2018-09-12T06:32:33.437Z,2316.00
2018-09-12T06:33:32.669Z,2328.00
2018-09-12T06:34:32.649Z,2340.00
2018-09-12T06:35:32.628Z,2352.00
2018-09-12T06:36:32.609Z,2368.00
2018-09-12T06:37:32.598Z,2384.00
2018-09-12T06:38:32.615Z,2392.00
2018-09-12T06:39:32.567Z,2412.00
2018-09-12T06:40:32.532Z,2424.00
2018-09-12T06:41:32.513Z,2440.00
2018-09-12T06:42:32.496Z,2452.00
2018-09-12T06:43:32.480Z,2468.00
2018-09-12T06:44:32.501Z,2480.00
2018-09-12T06:45:32.437Z,2496.00
2018-09-12T06:46:32.419Z,2508.00
2018-09-12T06:47:32.400Z,2520.00
2018-09-12T06:48:32.380Z,2564.00
2018-09-12T06:49:32.362Z,2544.00
2018-09-12T06:50:32.345Z,2556.00
2018-09-12T06:51:32.327Z,2568.00
2018-09-12T06:52:32.306Z,2584.00
2018-09-12T06:53:32.287Z,2592.00
2018-09-12T06:54:32.278Z,2604.00
2018-09-12T06:55:32.250Z,2612.00
2018-09-12T06:56:32.230Z,2632.00
2018-09-12T06:57:32.212Z,2636.00
2018-09-12T06:58:32.194Z,2648.00
2018-09-12T06:59:32.175Z,2664.00
2018-09-12T07:00:32.179Z,2668.00
2018-09-12T07:01:32.138Z,2680.00
2018-09-12T07:02:32.119Z,2688.00
2018-09-12T07:03:32.100Z,2700.00
2018-09-12T07:04:32.082Z,2712.00
2018-09-12T07:05:32.063Z,2716.00
2018-09-12T07:06:32.046Z,2748.00
2018-09-12T07:07:32.029Z,2732.00
2018-09-12T07:08:32.007Z,2744.00
2018-09-12T07:09:31.989Z,2772.00
2018-09-12T07:10:31.971Z,2760.00
2018-09-12T07:11:31.951Z,2764.00
2018-09-12T07:12:31.934Z,2776.00
2018-09-12T07:13:31.917Z,2784.00
2018-09-12T07:14:31.897Z,2788.00
2018-09-12T07:15:31.878Z,2808.00
2018-09-12T07:16:31.860Z,2812.00
2018-09-12T07:17:31.842Z,2824.00
2018-09-12T07:18:31.826Z,2844.00
2018-09-12T07:19:31.808Z,2868.00
2018-09-12T07:20:31.791Z,2848.00
2018-09-12T07:21:31.820Z,2852.00
2018-09-12T07:22:31.752Z,2860.00
2018-09-12T07:23:31.732Z,2892.00
2018-09-12T07:24:31.805Z,2868.00
2018-09-12T07:25:32.448Z,2876.00
2018-09-12T07:26:31.680Z,2876.00
2018-09-12T07:27:31.700Z,2888.00
2018-09-12T07:28:31.641Z,2892.00
2018-09-12T07:29:31.624Z,2956.00
2018-09-12T07:30:31.656Z,2904.00
2018-09-12T07:31:31.590Z,2924.00
2018-09-12T07:32:31.571Z,2956.00
2018-09-12T07:33:31.552Z,2916.00
2018-09-12T07:34:31.536Z,2916.00
2018-09-12T07:35:31.520Z,2916.00
2018-09-12T07:36:31.499Z,2924.00
2018-09-12T07:37:31.480Z,2932.00
2018-09-12T07:38:31.467Z,2932.00
2018-09-12T07:39:31.445Z,2944.00
2018-09-12T07:40:31.427Z,2952.00
2018-09-12T07:41:31.467Z,2952.00
2018-09-12T07:42:31.391Z,2960.00
2018-09-12T07:43:31.373Z,2956.00
2018-09-12T07:44:31.356Z,2964.00
2018-09-12T07:45:31.339Z,2968.00
2018-09-12T07:46:31.321Z,2972.00
2018-09-12T07:47:31.302Z,2976.00
2018-09-12T07:48:31.285Z,2992.00
2018-09-12T07:49:31.267Z,2988.00
2018-09-12T07:50:31.250Z,2984.00
2018-09-12T07:51:31.232Z,2988.00
2018-09-12T07:52:31.215Z,3000.00
2018-09-12T07:53:31.199Z,3000.00
2018-09-12T07:54:31.178Z,3004.00
2018-09-12T07:55:31.160Z,3008.00
2018-09-12T07:56:31.208Z,3012.00
2018-09-12T07:57:31.127Z,3008.00
2018-09-12T07:58:31.108Z,3020.00
2018-09-12T07:59:31.090Z,3024.00
2018-09-12T08:00:31.150Z,3028.00
2018-09-12T08:01:31.057Z,3024.00
2018-09-12T08:02:31.040Z,3032.00
2018-09-12T08:03:31.023Z,3036.00
2018-09-12T08:04:31.004Z,3040.00
2018-09-12T08:05:30.987Z,3044.00
2018-09-12T08:06:30.969Z,3044.00
2018-09-12T08:07:30.952Z,3036.00
2018-09-12T08:08:30.933Z,3048.00
2018-09-12T08:09:30.916Z,3052.00
2018-09-12T08:10:30.900Z,3056.00
2018-09-12T08:11:30.881Z,3068.00
2018-09-12T08:12:30.865Z,3064.00
2018-09-12T08:13:30.847Z,3072.00
2018-09-12T08:14:30.830Z,3076.00
2018-09-12T08:15:30.812Z,3080.00
2018-09-12T08:16:30.801Z,3084.00
2018-09-12T08:17:30.777Z,3124.00
2018-09-12T08:18:30.761Z,3148.00
2018-09-12T08:19:30.743Z,3092.00
2018-09-12T08:20:30.727Z,3096.00
2018-09-12T08:21:30.710Z,3104.00
2018-09-12T08:22:30.693Z,3104.00
2018-09-12T08:23:30.675Z,3112.00
2018-09-12T08:24:30.658Z,3116.00
2018-09-12T08:25:30.641Z,3112.00
2018-09-12T08:26:30.629Z,3120.00
2018-09-12T08:27:30.607Z,3120.00
2018-09-12T08:28:30.590Z,3124.00
2018-09-12T08:29:30.573Z,3120.00
2018-09-12T08:30:30.557Z,3124.00
2018-09-12T08:31:30.540Z,3124.00
2018-09-12T08:32:30.527Z,3116.00
2018-09-12T08:33:30.508Z,3128.00
2018-09-12T08:34:30.493Z,3132.00
2018-09-12T08:35:30.522Z,3136.00
2018-09-12T08:36:30.538Z,3140.00
2018-09-12T08:37:30.438Z,3136.00
2018-09-12T08:38:30.424Z,3160.00
2018-09-12T08:39:30.405Z,3144.00
2018-09-12T08:40:30.392Z,3148.00
2018-09-12T08:41:30.373Z,3148.00
2018-09-12T08:42:30.365Z,3148.00
2018-09-12T08:43:30.338Z,3152.00
2018-09-12T08:44:30.323Z,3160.00
2018-09-12T08:45:30.305Z,3156.00
2018-09-12T08:46:30.290Z,3156.00
2018-09-12T08:47:30.272Z,3148.00
2018-09-12T08:48:30.257Z,3160.00
2018-09-12T08:49:30.240Z,3152.00
2018-09-12T08:50:30.223Z,3148.00
2018-09-12T08:51:31.707Z,3152.00
2018-09-12T08:52:30.189Z,3156.00
2018-09-12T08:53:30.172Z,3132.00
2018-09-12T08:54:30.156Z,3152.00
2018-09-12T08:55:30.139Z,3148.00
2018-09-12T08:56:30.126Z,3152.00
2018-09-12T08:57:30.907Z,3240.00
2018-09-12T08:58:30.090Z,3144.00
2018-09-12T08:59:30.074Z,3144.00
2018-09-12T09:00:30.057Z,3144.00
2018-09-12T09:01:30.111Z,3148.00
2018-09-12T09:02:30.025Z,3148.00
2018-09-12T09:03:30.007Z,3148.00
2018-09-12T09:04:29.992Z,3140.00
2018-09-12T09:05:29.977Z,3144.00
2018-09-12T09:06:29.960Z,3140.00
2018-09-12T09:07:29.945Z,3132.00
2018-09-12T09:08:29.927Z,3132.00
2018-09-12T09:09:29.910Z,3136.00
2018-09-12T09:10:29.992Z,3140.00
2018-09-12T09:11:29.878Z,3140.00
2018-09-12T09:12:29.861Z,3140.00
2018-09-12T09:13:29.846Z,3144.00
2018-09-12T09:14:29.829Z,3144.00
2018-09-12T09:15:29.813Z,3144.00
2018-09-12T09:16:29.797Z,3144.00
2018-09-12T09:17:29.780Z,3140.00
2018-09-12T09:18:29.764Z,3140.00
2018-09-12T09:19:29.747Z,3132.00
2018-09-12T09:20:29.732Z,3136.00
2018-09-12T09:21:29.717Z,3136.00
2018-09-12T09:22:29.700Z,3136.00
2018-09-12T09:23:29.691Z,3140.00
2018-09-12T09:24:29.668Z,3140.00
2018-09-12T09:25:29.654Z,3132.00
2018-09-12T09:26:29.635Z,3140.00
2018-09-12T09:27:29.620Z,3124.00
2018-09-12T09:28:29.606Z,3124.00
2018-09-12T09:29:29.655Z,3124.00
2018-09-12T09:30:29.573Z,3120.00
2018-09-12T09:31:29.556Z,3116.00
2018-09-12T09:32:29.548Z,3112.00
2018-09-12T09:33:29.526Z,3112.00
2018-09-12T09:34:29.509Z,3196.00
2018-09-12T09:35:29.688Z,3104.00
2018-09-12T09:36:29.477Z,3104.00
2018-09-12T09:37:29.460Z,3112.00
2018-09-12T09:38:29.445Z,3104.00
2018-09-12T09:39:29.433Z,3100.00
2018-09-12T09:40:29.413Z,3104.00
2018-09-12T09:41:29.398Z,3092.00
2018-09-12T09:42:29.386Z,3096.00
2018-09-12T09:43:29.366Z,3104.00
2018-09-12T09:44:30.852Z,3096.00
2018-09-12T09:45:29.395Z,3096.00
2018-09-12T09:46:29.320Z,3104.00
2018-09-12T09:47:29.304Z,3108.00
2018-09-12T09:48:29.318Z,3108.00
2018-09-12T09:49:29.335Z,3116.00
2018-09-12T09:50:30.011Z,3112.00
2018-09-12T09:51:29.241Z,3100.00
2018-09-12T09:52:29.229Z,3112.00
2018-09-12T09:53:29.210Z,3116.00
2018-09-12T09:54:29.231Z,3112.00
2018-09-12T09:55:29.181Z,3112.00
2018-09-12T09:56:29.164Z,3116.00
2018-09-12T09:57:29.149Z,3124.00
2018-09-12T09:58:29.134Z,3124.00
2018-09-12T09:59:29.117Z,3104.00
2018-09-12T10:00:29.153Z,3096.00
2018-09-12T10:01:29.089Z,3112.00
2018-09-12T10:02:29.072Z,3112.00
2018-09-12T10:03:29.058Z,3116.00
2018-09-12T10:04:29.045Z,3112.00
2018-09-12T10:05:29.027Z,3120.00
2018-09-12T10:06:30.513Z,3120.00
2018-09-12T10:07:28.995Z,3112.00
2018-09-12T10:08:28.981Z,3112.00
2018-09-12T10:09:28.965Z,3112.00
2018-09-12T10:10:28.971Z,3112.00
2018-09-12T10:11:28.936Z,3424.00
2018-09-12T10:12:29.671Z,3100.00
2018-09-12T10:13:28.904Z,3200.00
2018-09-12T10:14:28.891Z,3112.00
2018-09-12T10:15:28.877Z,3112.00
2018-09-12T10:16:28.859Z,3120.00
2018-09-12T10:17:28.844Z,3128.00
2018-09-12T10:18:28.829Z,3080.00
2018-09-12T10:19:28.814Z,3088.00
2018-09-12T10:20:28.799Z,3068.00
2018-09-12T10:21:28.785Z,3088.00
2018-09-12T10:22:28.770Z,3080.00
2018-09-12T10:23:28.754Z,3072.00
2018-09-12T10:24:28.740Z,3072.00
2018-09-12T10:25:28.726Z,3080.00
2018-09-12T10:26:28.711Z,3040.00
2018-09-12T10:27:28.695Z,3052.00
2018-09-12T10:28:28.682Z,3068.00
2018-09-12T10:29:28.666Z,3060.00
2018-09-12T10:30:28.651Z,3064.00
2018-09-12T10:31:28.636Z,3060.00
2018-09-12T10:32:28.622Z,3064.00
2018-09-12T10:33:28.607Z,3048.00
2018-09-12T10:34:28.593Z,3048.00
2018-09-12T10:35:28.576Z,3044.00
2018-09-12T10:36:28.563Z,3028.00
2018-09-12T10:37:28.548Z,3040.00
2018-09-12T10:38:28.539Z,3036.00
2018-09-12T10:39:28.518Z,3012.00
2018-09-12T10:40:28.504Z,2996.00
2018-09-12T10:41:28.489Z,3008.00
2018-09-12T10:42:28.474Z,3008.00
2018-09-12T10:43:28.459Z,3020.00
2018-09-12T10:44:28.445Z,3000.00
2018-09-12T10:45:28.431Z,3016.00
2018-09-12T10:46:28.416Z,3032.00
2018-09-12T10:47:28.401Z,3032.00
2018-09-12T10:48:28.387Z,3012.00
2018-09-12T10:49:28.372Z,3016.00
2018-09-12T10:50:28.358Z,3024.00
2018-09-12T10:51:28.342Z,3028.00
2018-09-12T10:52:28.330Z,3004.00
2018-09-12T10:53:28.314Z,3068.00
2018-09-12T10:54:28.301Z,3016.00
2018-09-12T10:55:28.286Z,3036.00
2018-09-12T10:56:28.270Z,3044.00
2018-09-12T10:57:28.256Z,3048.00
2018-09-12T10:58:28.241Z,3052.00
2018-09-12T10:59:28.230Z,3048.00
2018-09-12T11:00:28.213Z,3048.00
2018-09-12T11:01:28.198Z,3056.00
2018-09-12T11:02:28.186Z,3056.00
2018-09-12T11:03:28.170Z,3052.00
2018-09-12T11:04:28.271Z,3016.00
2018-09-12T11:05:28.141Z,3056.00
2018-09-12T11:06:28.131Z,3060.00
2018-09-12T11:07:28.112Z,3060.00
2018-09-12T11:08:28.098Z,3056.00
2018-09-12T11:09:28.084Z,3060.00
2018-09-12T11:10:28.071Z,3084.00
2018-09-12T11:11:28.056Z,3052.00
2018-09-12T11:12:28.042Z,3068.00
2018-09-12T11:13:28.028Z,3060.00
2018-09-12T11:14:28.017Z,3060.00
2018-09-12T11:15:28.000Z,3092.00
2018-09-12T11:16:27.985Z,3100.00
2018-09-12T11:17:27.973Z,3108.00
2018-09-12T11:18:27.958Z,3096.00
2018-09-12T11:19:27.944Z,3108.00
2018-09-12T11:20:27.929Z,3100.00
2018-09-12T11:21:27.917Z,3100.00
2018-09-12T11:22:27.901Z,3100.00
2018-09-12T11:23:27.887Z,3128.00
2018-09-12T11:24:27.873Z,3132.00
2018-09-12T11:25:27.863Z,3128.00
2018-09-12T11:26:29.347Z,3128.00
2018-09-12T11:27:27.831Z,3128.00
2018-09-12T11:28:27.818Z,3164.00
2018-09-12T11:29:27.805Z,3172.00
2018-09-12T11:30:27.792Z,3188.00
2018-09-12T11:31:27.776Z,3192.00
2018-09-12T11:32:28.565Z,3192.00
2018-09-12T11:33:27.749Z,3200.00
2018-09-12T11:34:27.737Z,3184.00
2018-09-12T11:35:27.723Z,3228.00
2018-09-12T11:36:27.707Z,3208.00
2018-09-12T11:37:27.694Z,3204.00
2018-09-12T11:38:27.682Z,3200.00
2018-09-12T11:39:27.667Z,3200.00
2018-09-12T11:40:27.654Z,3204.00
2018-09-12T11:41:27.640Z,3220.00
2018-09-12T11:42:27.625Z,3204.00
2018-09-12T11:43:29.113Z,3228.00
2018-09-12T11:44:27.598Z,3240.00
2018-09-12T11:45:27.586Z,3288.00
2018-09-12T11:46:27.572Z,3276.00
2018-09-12T11:47:27.557Z,3296.00
2018-09-12T11:48:27.547Z,3280.00
2018-09-12T11:49:27.530Z,3056.00
2018-09-12T11:50:27.518Z,3372.00
2018-09-12T11:51:27.505Z,3356.00
2018-09-12T11:52:27.490Z,3416.00
2018-09-12T11:53:27.480Z,3456.00
2018-09-12T11:54:27.464Z,3468.00
2018-09-12T11:55:27.500Z,3448.00
2018-09-12T11:56:27.437Z,3452.00
2018-09-12T11:57:27.424Z,3484.00
2018-09-12T11:58:27.410Z,3252.00
2018-09-12T11:59:27.397Z,3060.00
2018-09-12T12:00:30.386Z,3604.00
2018-09-12T12:01:27.370Z,3700.00
2018-09-12T12:02:27.357Z,3676.00
2018-09-12T12:03:27.343Z,3696.00
2018-09-12T12:04:27.331Z,3644.00
2018-09-12T12:05:27.317Z,3664.00
2018-09-12T12:06:27.305Z,3768.00
2018-09-12T12:07:27.290Z,3864.00
2018-09-12T12:08:27.279Z,3932.00
2018-09-12T12:09:27.263Z,3832.00
2018-09-12T12:10:27.251Z,3820.00
2018-09-12T12:11:27.237Z,3640.00
2018-09-12T12:12:27.224Z,3824.00
2018-09-12T12:13:27.212Z,3816.00
2018-09-12T12:14:27.198Z,3856.00
2018-09-12T12:15:27.255Z,3996.00
2018-09-12T12:16:27.207Z,3984.00
2018-09-12T12:17:27.159Z,3684.00
2018-09-12T12:18:27.146Z,3564.00
2018-09-12T12:19:27.134Z,3308.00
2018-09-12T12:20:27.121Z,3676.00
2018-09-12T12:21:27.108Z,3660.00
2018-09-12T12:22:27.195Z,3576.00
2018-09-12T12:23:27.083Z,3596.00
2018-09-12T12:24:27.068Z,3512.00
2018-09-12T12:25:27.056Z,3476.00
2018-09-12T12:26:27.043Z,3460.00
2018-09-12T12:27:27.030Z,3500.00
2018-09-12T12:28:27.768Z,3560.00
2018-09-12T12:29:27.005Z,3556.00
2018-09-12T12:30:26.992Z,3792.00
2018-09-12T12:31:26.978Z,3888.00
2018-09-12T12:32:26.967Z,4088.00
2018-09-12T12:33:26.955Z,4264.00